Terminal Aerodrome Forecast
Issued by NWS Albany, NY

Home | Current Version | Previous Version | Text Only | Print | Product List | Glossary On
Versions: 1 2 3 4 5 6 7 8 9 10 11 12 13 14 15 16 17 18 19 20
000
FTUS41 KALY 220500
TAFGFL
TAF
KGFL 220533Z 2206/2306 VRB02KT 6SM BR OVC035
      TEMPO 2208/2212 4SM BR BKN025 OVC035
     FM221300 VRB03KT P6SM OVC035
     FM230300 00000KT 6SM BR VCSH OVC025=

USA.gov is the U.S. government's official web portal to all federal, state and local government web resources and services.